Orange City, IA

4:46 AM CDT on April 29, 2017 (GMT -0500)
Orange City Municipal

Weather History for KORC - February, 2013

Change the Weather History Date:

Thursday, February 14, 2013

  Actual Average Record
Temperature  
Mean Temperature 27 °F -  
Max Temperature 39 °F 33 °F 55 °F (1999)
Min Temperature 15 °F 17 °F -13 °F (2007)
Degree Days  
Heating Degree Days 38    
Moisture  
Dew Point 21 °F    
Average Humidity 73    
Maximum Humidity 93    
Minimum Humidity 49    
Precipitation  
Precipitation 0.00 in - - ()
Sea Level Pressure  
Sea Level Pressure 29.97 in    
Wind  
Wind Speed 15 mph (NNW)    
Max Wind Speed 29 mph    
Max Gust Speed 32 mph    
Visibility 10 miles    
Events Snow    
Averages and records for this station are not official NWS values.
T = Trace of Precipitation, MM = Missing Value Source: NWS Daily Summary

Daily Weather History Graph

Daily Weather History Graph

Search for Another Location

Airport or City:

Trip Planner

Search our weather history database for the weather conditions in past years. The results will help you decide how hot, cold, wet, or windy it might be!

Date:

Astronomy

Feb. 14, 2013 Rise Set
Actual Time 7:22 AM CST 5:54 PM CST
Civil Twilight 6:53 AM CST 6:23 PM CST
Nautical Twilight 6:20 AM CST 6:57 PM CST
Astronomical Twilight 5:47 AM CST 7:30 PM CST
Moon 9:16 AM CST (2/14) 11:08 PM CST (2/14)
Length of Visible Light 11h 30m
Length of Day
10h 31m
Waxing Crescent, 22% of the Moon is Illuminated
Feb 14
Waxing Crescent
Feb 17
First Quarter
Feb 25
Full
Mar 4
Last Quarter
Mar 11
New

Hourly Weather History & Observations

Time (CST) Temp. Windchill Dew Point Humidity Pressure Visibility Wind Dir Wind Speed Gust Speed Precip Events Conditions
12:15 AM 35.6 °F 25.5 °F 30.2 °F 81% 29.72 in 10.0 mi WNW 17.3 mph - N/A   Scattered Clouds
12:35 AM 35.6 °F 24.8 °F 30.2 °F 81% 29.72 in 10.0 mi WNW 19.6 mph 25.3 mph N/A   Overcast
12:55 AM 35.6 °F 25.5 °F 30.2 °F 81% 29.73 in 10.0 mi NW 17.3 mph 21.9 mph N/A   Overcast
1:15 AM 35.6 °F 24.8 °F 30.2 °F 81% 29.74 in 10.0 mi NW 19.6 mph 24.2 mph N/A   Overcast
1:35 AM 33.8 °F 23.9 °F 28.4 °F 81% 29.75 in 10.0 mi NW 15.0 mph - N/A   Mostly Cloudy
1:55 AM 35.6 °F 24.5 °F 28.4 °F 75% 29.76 in 10.0 mi NW 20.7 mph 32.2 mph N/A   Mostly Cloudy
2:15 AM 33.8 °F 23.5 °F 26.6 °F 75% 29.77 in 10.0 mi NW 16.1 mph 24.2 mph N/A   Scattered Clouds
2:35 AM 33.8 °F 23.2 °F 28.4 °F 81% 29.78 in 10.0 mi NW 17.3 mph 20.7 mph N/A   Scattered Clouds
2:55 AM 33.8 °F 24.8 °F 28.4 °F 81% 29.79 in 10.0 mi NNW 12.7 mph 19.6 mph N/A   Mostly Cloudy
3:15 AM 33.8 °F 23.2 °F 26.6 °F 75% 29.80 in 10.0 mi NNW 17.3 mph 25.3 mph N/A   Overcast
3:35 AM 32.0 °F 20.5 °F 26.6 °F 80% 29.80 in 10.0 mi NW 18.4 mph 23.0 mph N/A   Overcast
3:55 AM 32.0 °F 21.6 °F 26.6 °F 80% 29.81 in 10.0 mi NW 15.0 mph 19.6 mph N/A   Overcast
4:15 AM 30.2 °F 19.8 °F 24.8 °F 80% 29.82 in 10.0 mi NW 13.8 mph - N/A   Scattered Clouds
4:35 AM 30.2 °F 20.2 °F 26.6 °F 86% 29.82 in 10.0 mi NW 12.7 mph - N/A   Mostly Cloudy
4:55 AM 30.2 °F 19.8 °F 26.6 °F 86% 29.83 in 10.0 mi NW 13.8 mph 19.6 mph N/A   Scattered Clouds
5:15 AM 30.2 °F 20.8 °F 26.6 °F 86% 29.84 in 10.0 mi NW 11.5 mph - N/A   Clear
5:35 AM 28.4 °F 19.1 °F 26.6 °F 93% 29.84 in 10.0 mi NW 10.4 mph - N/A   Clear
5:55 AM 28.4 °F 18.5 °F 26.6 °F 93% 29.85 in 10.0 mi NW 11.5 mph - N/A   Clear
6:15 AM 30.2 °F 21.3 °F 26.6 °F 86% 29.84 in 10.0 mi NW 10.4 mph - N/A   Mostly Cloudy
6:35 AM 30.2 °F 21.3 °F 26.6 °F 86% 29.85 in 10.0 mi NW 10.4 mph - N/A   Overcast
6:55 AM 28.4 °F 18.5 °F 26.6 °F 93% 29.86 in 10.0 mi NW 11.5 mph - N/A   Scattered Clouds
7:15 AM 28.4 °F 21.2 °F 26.6 °F 93% 29.86 in 10.0 mi NW 6.9 mph - N/A   Clear
7:35 AM 28.4 °F 21.2 °F 26.6 °F 93% 29.87 in 10.0 mi NW 6.9 mph - N/A   Scattered Clouds
7:55 AM 30.2 °F 23.4 °F 26.6 °F 86% 29.87 in 10.0 mi WNW 6.9 mph - N/A   Mostly Cloudy
8:15 AM 30.2 °F 23.4 °F 26.6 °F 86% 29.88 in 10.0 mi WNW 6.9 mph - N/A   Overcast
8:35 AM 30.2 °F 23.4 °F 28.4 °F 93% 29.88 in 7.0 mi WNW 6.9 mph - N/A   Overcast
8:55 AM 32.0 °F 25.6 °F 28.4 °F 87% 29.88 in 5.0 mi West 6.9 mph - N/A   Overcast
9:15 AM 33.8 °F 25.8 °F 28.4 °F 81% 29.89 in 5.0 mi West 10.4 mph - N/A   Overcast
9:35 AM 33.8 °F 24.3 °F 30.2 °F 87% 29.89 in 7.0 mi WNW 13.8 mph - N/A   Mostly Cloudy
9:55 AM 35.6 °F 24.8 °F 28.4 °F 75% 29.89 in 10.0 mi NW 19.6 mph 23.0 mph N/A   Scattered Clouds
10:15 AM 35.6 °F 24.8 °F 28.4 °F 75% 29.89 in 10.0 mi NW 19.6 mph 28.8 mph N/A   Clear
10:35 AM 37.4 °F 26.9 °F 26.6 °F 65% 29.89 in 10.0 mi WNW 20.7 mph - N/A   Clear
10:55 AM 37.4 °F 26.9 °F 26.6 °F 65% 29.90 in 10.0 mi WNW 20.7 mph 27.6 mph N/A   Scattered Clouds
11:15 AM 35.6 °F 25.5 °F 26.6 °F 70% 29.91 in 10.0 mi NW 17.3 mph 29.9 mph N/A   Overcast
11:35 AM 37.4 °F 26.1 °F 26.6 °F 65% 29.92 in 10.0 mi NW 24.2 mph 28.8 mph N/A   Overcast
11:55 AM 37.4 °F 25.2 °F 28.4 °F 70% 29.92 in 10.0 mi NW 28.8 mph - N/A   Mostly Cloudy
12:15 PM 39.2 °F 29.8 °F 26.6 °F 61% 29.92 in 10.0 mi NNW 18.4 mph 25.3 mph N/A   Overcast
12:35 PM 35.6 °F 25.9 °F 26.6 °F 70% 29.92 in 10.0 mi NNW 16.1 mph 25.3 mph N/A Snow Light Snow
12:55 PM 35.6 °F 25.5 °F 26.6 °F 70% 29.93 in 10.0 mi NNW 17.3 mph 32.2 mph N/A   Overcast
1:15 PM 35.6 °F 24.2 °F 26.6 °F 70% 29.94 in 10.0 mi NW 21.9 mph 27.6 mph N/A   Overcast
1:35 PM 33.8 °F 25.3 °F 26.6 °F 75% 29.95 in 10.0 mi North 11.5 mph 18.4 mph N/A Snow Light Snow
1:55 PM 33.8 °F 24.8 °F 26.6 °F 75% 29.96 in 10.0 mi North 12.7 mph 18.4 mph N/A   Overcast
2:15 PM 33.8 °F 24.8 °F 26.6 °F 75% 29.97 in 10.0 mi North 12.7 mph 20.7 mph N/A   Mostly Cloudy
2:35 PM 33.8 °F 25.3 °F 26.6 °F 75% 29.98 in 10.0 mi North 11.5 mph 16.1 mph N/A   Mostly Cloudy
2:55 PM 33.8 °F 25.8 °F 24.8 °F 70% 30.00 in 10.0 mi North 10.4 mph 18.4 mph N/A   Mostly Cloudy
3:15 PM 32.0 °F 23.0 °F 24.8 °F 75% 30.00 in 10.0 mi North 11.5 mph 18.4 mph N/A   Mostly Cloudy
3:35 PM 33.8 °F 24.8 °F 24.8 °F 70% 30.02 in 10.0 mi North 12.7 mph 18.4 mph N/A   Overcast
3:55 PM 30.2 °F 20.8 °F 21.2 °F 69% 30.04 in 10.0 mi North 11.5 mph 19.6 mph N/A   Overcast
4:15 PM 30.2 °F 20.2 °F 21.2 °F 69% 30.05 in 10.0 mi North 12.7 mph 20.7 mph N/A   Overcast
4:35 PM 30.2 °F 19.3 °F 21.2 °F 69% 30.06 in 10.0 mi North 15.0 mph 19.6 mph N/A   Overcast
4:55 PM 28.4 °F 18.0 °F 17.6 °F 64% 30.08 in 10.0 mi North 12.7 mph 19.6 mph N/A   Overcast
5:15 PM 28.4 °F 17.5 °F 12.2 °F 51% 30.09 in 10.0 mi North 13.8 mph 20.7 mph N/A   Overcast
5:35 PM 28.4 °F 18.5 °F 15.8 °F 59% 30.10 in 10.0 mi North 11.5 mph 18.4 mph N/A   Overcast
5:55 PM 26.6 °F 14.7 °F 12.2 °F 55% 30.11 in 10.0 mi North 15.0 mph 19.6 mph N/A   Overcast
6:15 PM 26.6 °F 15.2 °F 12.2 °F 55% 30.13 in 10.0 mi North 13.8 mph 24.2 mph N/A   Overcast
6:35 PM 24.8 °F 11.9 °F 12.2 °F 59% 30.15 in 10.0 mi North 16.1 mph 20.7 mph N/A   Overcast
6:55 PM 24.8 °F 11.9 °F 12.2 °F 59% 30.16 in 10.0 mi North 16.1 mph 23.0 mph N/A   Scattered Clouds
7:15 PM 23.0 °F 8.7 °F 10.4 °F 59% 30.17 in 10.0 mi North 18.4 mph 24.2 mph N/A   Clear
7:35 PM 21.2 °F 6.8 °F 8.6 °F 58% 30.18 in 10.0 mi North 17.3 mph 21.9 mph N/A   Clear
7:55 PM 21.2 °F 7.8 °F 6.8 °F 54% 30.18 in 10.0 mi North 15.0 mph 21.9 mph N/A   Clear
8:15 PM 21.2 °F 7.8 °F 6.8 °F 54% 30.20 in 10.0 mi North 15.0 mph 23.0 mph N/A   Clear
8:35 PM 21.2 °F 8.9 °F 6.8 °F 54% 30.20 in 10.0 mi NNW 12.7 mph - N/A   Clear
8:55 PM 21.2 °F 7.3 °F 6.8 °F 54% 30.21 in 10.0 mi NNW 16.1 mph 20.7 mph N/A   Clear
9:15 PM 19.4 °F 5.0 °F 3.2 °F 49% 30.22 in 10.0 mi North 16.1 mph 21.9 mph N/A   Clear
9:35 PM 19.4 °F 6.6 °F 6.8 °F 58% 30.22 in 10.0 mi NNW 12.7 mph - N/A   Clear
9:55 PM 17.6 °F 4.3 °F 5.0 °F 58% 30.23 in 10.0 mi NNW 12.7 mph 21.9 mph N/A   Clear
10:15 PM 17.6 °F 4.3 °F 8.6 °F 68% 30.24 in 10.0 mi NNW 12.7 mph 17.3 mph N/A   Clear
10:35 PM 17.6 °F 3.7 °F 5.0 °F 58% 30.24 in 10.0 mi NNW 13.8 mph - N/A   Clear
10:55 PM 17.6 °F 7.3 °F 6.8 °F 63% 30.24 in 10.0 mi NNW 8.1 mph - N/A   Clear
11:15 PM 15.8 °F 3.4 °F 6.8 °F 68% 30.24 in 10.0 mi NNW 10.4 mph - N/A   Clear
11:35 PM 15.8 °F 4.2 °F 6.8 °F 68% 30.24 in 10.0 mi NNW 9.2 mph - N/A   Clear
11:55 PM 15.8 °F 4.2 °F 8.6 °F 73% 30.24 in 10.0 mi NNW 9.2 mph - N/A   Clear